createdAt,value
2018-05-23T00:01:34.374Z,2.71
2018-05-23T00:07:29.399Z,3.6
2018-05-23T00:13:24.430Z,3.45
2018-05-23T00:19:19.373Z,3.45
2018-05-23T00:25:14.375Z,3.44
2018-05-23T00:31:09.372Z,2.99
2018-05-23T00:37:04.428Z,2.9
2018-05-23T00:42:59.407Z,3.53
2018-05-23T00:48:54.530Z,3.01
2018-05-23T00:54:49.449Z,3.29
2018-05-23T01:00:44.417Z,3.7
2018-05-23T01:06:39.418Z,3.19
2018-05-23T01:12:34.420Z,3.39
2018-05-23T01:18:29.425Z,3.21
2018-05-23T01:24:24.482Z,3.19
2018-05-23T01:30:19.399Z,3
2018-05-23T01:36:14.498Z,3.77
2018-05-23T01:42:09.468Z,6.77
2018-05-23T01:48:04.431Z,3.5
2018-05-23T01:53:59.454Z,3.56
2018-05-23T01:59:54.418Z,3.75
2018-05-23T02:05:49.712Z,3.94
2018-05-23T02:11:44.450Z,3.13
2018-05-23T02:17:39.442Z,3.26
2018-05-23T02:23:34.459Z,3.23
2018-05-23T02:29:29.485Z,3.7
2018-05-23T02:35:24.420Z,3.18
2018-05-23T02:41:19.457Z,3.22
2018-05-23T02:47:14.444Z,4.52
2018-05-23T02:53:09.419Z,3.99
2018-05-23T02:59:04.426Z,4.03
2018-05-23T03:04:59.461Z,3.8
2018-05-23T03:10:54.469Z,3.56
2018-05-23T03:16:49.445Z,3.74
2018-05-23T03:22:44.473Z,3.24
2018-05-23T03:28:39.500Z,3.14
2018-05-23T03:34:34.433Z,3.68
2018-05-23T03:40:29.465Z,3.68
2018-05-23T03:46:24.429Z,3.32
2018-05-23T03:52:19.446Z,3.87
2018-05-23T03:58:14.450Z,3.68
2018-05-23T04:04:09.476Z,4.99
2018-05-23T04:10:04.523Z,6.92
2018-05-23T04:15:59.483Z,4.74
2018-05-23T04:21:54.456Z,3.83
2018-05-23T04:27:49.461Z,3.96
2018-05-23T04:33:44.460Z,3.71
2018-05-23T04:39:39.465Z,4.32
2018-05-23T04:45:34.468Z,5.37
2018-05-23T04:51:29.482Z,6.34
2018-05-23T04:57:24.522Z,7.99
2018-05-23T05:03:19.488Z,9.26
2018-05-23T05:09:14.484Z,10.17
2018-05-23T05:15:09.558Z,10.94
2018-05-23T05:21:04.532Z,7.88
2018-05-23T05:26:59.469Z,7.7
2018-05-23T05:32:54.483Z,5.29
2018-05-23T05:38:49.540Z,4.91
2018-05-23T05:44:44.511Z,4.91
2018-05-23T05:50:39.504Z,4.7
2018-05-23T05:56:34.509Z,6.1
2018-05-23T06:02:29.493Z,7.28
2018-05-23T06:08:24.517Z,9.55
2018-05-23T06:14:19.502Z,11.08
2018-05-23T06:20:14.516Z,12.48
2018-05-23T06:26:09.592Z,13.3
2018-05-23T06:32:04.557Z,12.39
2018-05-23T06:37:59.473Z,12.72
2018-05-23T06:43:54.511Z,12.96
2018-05-23T06:49:49.529Z,11.76
2018-05-23T06:55:44.617Z,8.74
2018-05-23T07:01:39.517Z,7.22
2018-05-23T07:07:34.527Z,5.03
2018-05-23T07:13:29.532Z,3.65
2018-05-23T07:19:24.517Z,3.29
2018-05-23T07:25:19.487Z,3.34
2018-05-23T07:31:14.540Z,3.07
2018-05-23T07:37:09.528Z,3.13
2018-05-23T07:43:04.531Z,2.92
2018-05-23T07:48:59.507Z,2.91
2018-05-23T07:54:54.501Z,2.96
2018-05-23T08:00:49.650Z,2.93
2018-05-23T08:06:44.572Z,3.16
2018-05-23T08:12:39.540Z,2.78
2018-05-23T08:18:34.498Z,3.48
2018-05-23T08:24:29.589Z,3.17
2018-05-23T08:30:24.537Z,3.47
2018-05-23T08:36:19.563Z,2.97
2018-05-23T08:42:14.523Z,3.14
2018-05-23T08:48:09.522Z,3.41
2018-05-23T08:54:04.522Z,3.07
2018-05-23T08:59:59.534Z,3.41
2018-05-23T09:05:54.552Z,3.29
2018-05-23T09:11:49.529Z,2.93
2018-05-23T09:17:44.523Z,2.76
2018-05-23T09:23:39.564Z,3.2
2018-05-23T09:29:34.534Z,2.69
2018-05-23T09:35:29.533Z,2.78
2018-05-23T09:41:24.542Z,3.28
2018-05-23T09:47:19.525Z,3.08
2018-05-23T09:53:14.578Z,2.53
2018-05-23T09:59:09.529Z,2.96
2018-05-23T10:05:04.532Z,2.85
2018-05-23T10:10:59.533Z,3
2018-05-23T10:16:54.573Z,2.83
2018-05-23T10:22:49.534Z,2.57
2018-05-23T10:28:44.573Z,3.25
2018-05-23T10:34:39.561Z,3.15
2018-05-23T10:40:34.596Z,3.39
2018-05-23T10:46:29.647Z,3.46
2018-05-23T10:52:24.558Z,4.24
2018-05-23T10:58:19.588Z,3.16
2018-05-23T11:04:14.609Z,4.1
2018-05-23T11:10:09.596Z,3.7
2018-05-23T11:16:04.607Z,4.07
2018-05-23T11:21:59.572Z,3.03
2018-05-23T11:27:54.591Z,3.09
2018-05-23T11:33:49.604Z,3.29
2018-05-23T11:39:44.580Z,3.35
2018-05-23T11:45:39.598Z,3.01
2018-05-23T11:51:34.646Z,3.22
2018-05-23T11:57:29.595Z,3.11
2018-05-23T12:03:24.634Z,3.65
2018-05-23T12:09:19.648Z,2.95
2018-05-23T12:15:14.599Z,3
2018-05-23T12:21:09.612Z,3.3
2018-05-23T12:27:04.636Z,3.18
2018-05-23T12:32:59.605Z,2.82
2018-05-23T12:38:54.604Z,3.08
2018-05-23T12:44:49.659Z,3.22
2018-05-23T12:50:44.597Z,3.1
2018-05-23T12:56:39.601Z,2.79
2018-05-23T13:02:34.595Z,3.13
2018-05-23T13:08:29.629Z,2.83
2018-05-23T13:14:24.697Z,3.47
2018-05-23T13:20:19.625Z,2.93
2018-05-23T13:26:14.633Z,2.21
2018-05-23T13:32:09.627Z,2.09
2018-05-23T13:38:04.624Z,1.89
2018-05-23T13:43:59.691Z,2.11
2018-05-23T13:49:54.634Z,2.75
2018-05-23T13:55:49.682Z,2.3
2018-05-23T14:01:44.675Z,2.3
2018-05-23T14:07:39.620Z,2.91
2018-05-23T14:13:34.641Z,2.48
2018-05-23T14:19:29.768Z,2.27
2018-05-23T14:25:24.644Z,2.41
2018-05-23T14:31:19.652Z,2.25
2018-05-23T14:37:14.669Z,2.44
2018-05-23T14:43:09.683Z,2.23
2018-05-23T14:49:04.681Z,2.39
2018-05-23T14:54:59.713Z,2.27
2018-05-23T15:00:54.640Z,2.05
2018-05-23T15:06:49.651Z,2.19
2018-05-23T15:12:44.638Z,2.73
2018-05-23T15:18:39.710Z,2.29
2018-05-23T15:24:34.705Z,1.97
2018-05-23T15:30:29.694Z,2.7
2018-05-23T15:36:24.681Z,2.81
2018-05-23T15:42:19.688Z,2.52
2018-05-23T15:48:14.731Z,2.63
2018-05-23T15:54:09.704Z,2.86
2018-05-23T16:00:05.764Z,2.6
2018-05-23T16:05:59.937Z,2.6
2018-05-23T16:11:54.691Z,2.16
2018-05-23T16:17:55.956Z,2.42
2018-05-23T16:23:44.770Z,2.47
2018-05-23T16:29:39.686Z,2.08
2018-05-23T16:35:34.715Z,2.55
2018-05-23T16:41:29.746Z,2.64
2018-05-23T16:47:25.690Z,2.37
2018-05-23T16:53:19.745Z,2.06
2018-05-23T16:59:14.714Z,2.23
2018-05-23T17:05:09.728Z,2.13
2018-05-23T17:11:04.716Z,2.02
2018-05-23T17:16:59.774Z,1.95
2018-05-23T17:22:54.794Z,2.57
2018-05-23T17:28:49.715Z,2.12
2018-05-23T17:34:44.739Z,2.4
2018-05-23T17:40:39.732Z,2.41
2018-05-23T17:46:34.737Z,2.91
2018-05-23T17:52:30.757Z,2.58
2018-05-23T17:58:24.743Z,2.78
2018-05-23T18:04:19.775Z,2.35
2018-05-23T18:10:14.745Z,3.01
2018-05-23T18:16:09.742Z,3.04
2018-05-23T18:22:04.807Z,3.37
2018-05-23T18:27:59.780Z,3.42
2018-05-23T18:33:54.784Z,2.5
2018-05-23T18:39:49.762Z,2.65
2018-05-23T18:45:44.732Z,2.03
2018-05-23T18:51:39.782Z,2.46
2018-05-23T18:57:34.740Z,2.36
2018-05-23T19:03:29.749Z,2.18
2018-05-23T19:09:24.728Z,2.28
2018-05-23T19:15:19.790Z,2.13
2018-05-23T19:21:14.752Z,2.29
2018-05-23T19:27:09.737Z,2.33
2018-05-23T19:33:04.792Z,2.7
2018-05-23T19:38:59.777Z,2.66
2018-05-23T19:44:54.817Z,2.97
2018-05-23T19:50:49.775Z,2.66
2018-05-23T19:56:44.765Z,2.43
2018-05-23T20:02:39.752Z,2.23
2018-05-23T20:08:34.782Z,2.59
2018-05-23T20:14:29.829Z,1.95
2018-05-23T20:20:24.760Z,2.46
2018-05-23T20:26:19.842Z,2.14
2018-05-23T20:32:14.803Z,2.18
2018-05-23T20:38:09.793Z,2.33
2018-05-23T20:44:04.804Z,2.23
2018-05-23T20:49:59.784Z,2.37
2018-05-23T20:55:54.768Z,2.55
2018-05-23T21:01:49.844Z,2.31
2018-05-23T21:07:44.792Z,1.99
2018-05-23T21:13:39.783Z,2.22
2018-05-23T21:19:34.968Z,1.99
2018-05-23T21:25:29.783Z,1.99
2018-05-23T21:31:24.762Z,2.23
2018-05-23T21:37:20.777Z,2.04
2018-05-23T21:43:14.780Z,1.97
2018-05-23T21:49:09.786Z,2.36
2018-05-23T21:55:04.782Z,2.49
2018-05-23T22:00:59.866Z,2.39
2018-05-23T22:06:54.776Z,2.2
2018-05-23T22:12:49.771Z,2.17
2018-05-23T22:18:44.778Z,2.53
2018-05-23T22:24:39.953Z,2.45
2018-05-23T22:30:34.929Z,2.64
2018-05-23T22:36:29.844Z,2.72
2018-05-23T22:42:24.794Z,3.41
2018-05-23T22:48:19.816Z,2.82
2018-05-23T22:54:14.850Z,2.65
2018-05-23T23:00:10.109Z,2.78
2018-05-23T23:06:04.803Z,2.4
2018-05-23T23:11:59.800Z,2.88
2018-05-23T23:17:54.848Z,2.65
2018-05-23T23:23:49.865Z,2.37
2018-05-23T23:29:44.798Z,2.5
2018-05-23T23:35:39.783Z,2.59
2018-05-23T23:41:34.823Z,2.5
2018-05-23T23:47:29.828Z,2.81
2018-05-23T23:53:24.816Z,2.43
2018-05-23T23:59:19.841Z,2.72
